Time;durP1;ratioP1;P1;durP2;ratioP2;P2;SDS_P1;SDS_P2;PMS_P1;PMS_P2;Temp;Humidity;BMP_temperature;BMP_pressure;BME280_temperature;BME280_humidity;BME280_pressure;Samples;Min_cycle;Max_cycle;Signal;HPM_P1;HPM_P2
2022/09/13 00:00:59;;;;;;;0.40;0.40;;;18.30;99.90;;;;;;5014050;28;20214;-81
2022/09/13 00:03:25;;;;;;;0.30;0.30;;;18.30;99.90;;;;;;4998634;28;20389;-81
2022/09/13 00:05:51;;;;;;;0.40;0.40;;;18.20;99.90;;;;;;5003495;28;20036;-80
2022/09/13 00:08:17;;;;;;;0.40;0.40;;;18.20;99.90;;;;;;5001010;28;20090;-80
2022/09/13 00:10:44;;;;;;;0.30;0.30;;;18.20;99.90;;;;;;5023037;28;20038;-81
2022/09/13 00:13:11;;;;;;;0.40;0.40;;;18.10;99.90;;;;;;5016430;28;20940;-82
2022/09/13 00:15:48;;;;;;;0.40;0.40;;;18.00;99.90;;;;;;5001052;28;20502;-81
2022/09/13 00:18:16;;;;;;;0.40;0.40;;;17.90;99.90;;;;;;5006694;28;20830;-82
2022/09/13 00:20:42;;;;;;;0.40;0.40;;;17.90;99.90;;;;;;5006778;28;20036;-84
2022/09/13 00:23:07;;;;;;;0.40;0.40;;;17.80;99.90;;;;;;4991383;28;20241;-83
2022/09/13 00:25:33;;;;;;;0.40;0.40;;;17.80;99.90;;;;;;4986745;28;20054;-82
2022/09/13 00:27:59;;;;;;;0.40;0.40;;;17.80;99.90;;;;;;5020033;28;20043;-83
2022/09/13 00:30:25;;;;;;;0.40;0.40;;;17.70;99.90;;;;;;5006113;28;20044;-82
2022/09/13 00:32:51;;;;;;;0.30;0.30;;;17.60;99.90;;;;;;5000306;28;20399;-84
2022/09/13 00:35:20;;;;;;;0.30;0.30;;;17.60;99.90;;;;;;4985272;28;20137;-85
2022/09/13 00:37:46;;;;;;;0.40;0.40;;;17.60;99.90;;;;;;5001944;28;20042;-85
2022/09/13 00:40:12;;;;;;;0.40;0.40;;;17.60;99.90;;;;;;4988113;28;20046;-85
2022/09/13 00:42:38;;;;;;;0.40;0.40;;;17.50;99.90;;;;;;4973610;28;20494;-85
2022/09/13 00:45:09;;;;;;;0.40;0.40;;;17.40;99.90;;;;;;5003142;28;20631;-86
2022/09/13 00:47:43;;;;;;;0.50;0.50;;;17.20;99.90;;;;;;5006876;28;20881;-86
2022/09/13 00:50:22;;;;;;;0.40;0.40;;;17.30;99.90;;;;;;4995727;28;20070;-85
2022/09/13 00:53:00;;;;;;;0.40;0.40;;;17.40;99.90;;;;;;5000580;28;20112;-85
2022/09/13 00:55:41;;;;;;;0.40;0.40;;;17.20;99.90;;;;;;5013048;28;20073;-85
2022/09/13 00:58:23;;;;;;;0.40;0.40;;;17.20;99.90;;;;;;5002654;28;20721;-85
2022/09/13 01:00:49;;;;;;;0.40;0.40;;;17.30;99.90;;;;;;4998473;28;20297;-85
2022/09/13 01:03:18;;;;;;;0.40;0.40;;;17.30;99.90;;;;;;4998957;28;20050;-85
2022/09/13 01:05:52;;;;;;;0.40;0.40;;;17.30;99.90;;;;;;4983389;28;20075;-85
2022/09/13 01:08:21;;;;;;;0.40;0.40;;;17.40;99.90;;;;;;5006855;28;20515;-85
2022/09/13 01:10:52;;;;;;;0.40;0.40;;;17.40;99.90;;;;;;5003631;28;20044;-84
2022/09/13 01:13:31;;;;;;;0.40;0.40;;;17.30;99.90;;;;;;5002194;28;20039;-85
2022/09/13 01:15:57;;;;;;;0.30;0.30;;;17.10;99.90;;;;;;5012091;28;20046;-85
2022/09/13 01:18:23;;;;;;;0.40;0.40;;;17.10;99.90;;;;;;4989275;28;20054;-85
2022/09/13 01:21:11;;;;;;;0.40;0.40;;;17.00;99.90;;;;;;4972955;28;20135;-85
2022/09/13 01:24:00;;;;;;;0.40;0.40;;;17.10;99.90;;;;;;5001013;28;20032;-84
2022/09/13 01:26:34;;;;;;;0.30;0.30;;;17.20;99.90;;;;;;5010943;28;20594;-84
2022/09/13 01:29:21;;;;;;;0.38;0.38;;;17.10;99.90;;;;;;5008176;28;20458;-84
2022/09/13 01:32:02;;;;;;;0.30;0.30;;;17.30;99.90;;;;;;5005972;28;20381;-84
2022/09/13 01:35:04;;;;;;;0.40;0.40;;;17.30;99.90;;;;;;4989322;28;20040;-84
2022/09/13 01:37:40;;;;;;;0.40;0.40;;;17.30;99.90;;;;;;4982905;28;20059;-85
2022/09/13 01:40:16;;;;;;;0.30;0.30;;;17.40;99.90;;;;;;5005347;28;20075;-84
2022/09/13 01:43:15;;;;;;;0.40;0.40;;;17.30;99.90;;;;;;4998863;28;20574;-84
2022/09/13 01:45:50;;;;;;;0.40;0.40;;;17.40;99.90;;;;;;5000716;28;20883;-85
2022/09/13 01:48:28;;;;;;;0.30;0.30;;;17.40;99.90;;;;;;4999494;28;20047;-85
2022/09/13 01:51:25;;;;;;;0.40;0.40;;;17.40;99.90;;;;;;5001213;28;20062;-85
2022/09/13 01:54:14;;;;;;;0.40;0.40;;;17.40;99.90;;;;;;4999602;28;20064;-84
2022/09/13 01:56:53;;;;;;;0.40;0.40;;;17.50;99.90;;;;;;4987258;28;20062;-84
2022/09/13 01:59:47;;;;;;;0.40;0.40;;;17.50;99.90;;;;;;5001275;28;20054;-85
2022/09/13 02:02:24;;;;;;;0.40;0.40;;;17.50;99.90;;;;;;5002635;28;20040;-85
2022/09/13 02:04:58;;;;;;;0.40;0.40;;;17.60;99.90;;;;;;5004990;28;20052;-84
2022/09/13 02:07:33;;;;;;;0.40;0.40;;;17.60;99.90;;;;;;5008192;28;20104;-85
2022/09/13 02:10:05;;;;;;;0.40;0.40;;;17.60;99.90;;;;;;5015747;28;20158;-84
2022/09/13 02:12:34;;;;;;;0.40;0.40;;;17.60;99.90;;;;;;5006687;28;20054;-84
2022/09/13 02:15:25;;;;;;;0.40;0.40;;;17.60;99.90;;;;;;5008704;28;20485;-84
2022/09/13 02:18:11;;;;;;;0.40;0.40;;;17.50;99.90;;;;;;5003550;28;20044;-84
2022/09/13 02:20:43;;;;;;;0.40;0.40;;;17.50;99.90;;;;;;4996948;28;20753;-85
2022/09/13 02:23:29;;;;;;;0.40;0.40;;;17.50;99.90;;;;;;4998088;28;20312;-85
2022/09/13 02:25:58;;;;;;;0.40;0.40;;;17.60;99.90;;;;;;4998138;28;20212;-84
2022/09/13 02:28:43;;;;;;;0.40;0.40;;;17.60;99.90;;;;;;5009059;28;20119;-84
2022/09/13 02:31:11;;;;;;;0.40;0.40;;;17.60;99.90;;;;;;5012097;28;20757;-84
2022/09/13 02:34:13;;;;;;;0.40;0.40;;;17.60;99.90;;;;;;5015886;28;20476;-84
2022/09/13 02:36:41;;;;;;;0.40;0.40;;;17.60;99.90;;;;;;4978526;28;20433;-84
2022/09/13 02:39:13;;;;;;;0.40;0.40;;;17.50;99.90;;;;;;4979371;28;21060;-84
2022/09/13 02:41:54;;;;;;;0.40;0.40;;;17.50;99.90;;;;;;4991755;28;20051;-85
2022/09/13 02:44:36;;;;;;;0.40;0.40;;;17.50;99.90;;;;;;4984782;28;20105;-85
2022/09/13 02:47:23;;;;;;;0.40;0.40;;;17.50;99.90;;;;;;5014011;28;20244;-85
2022/09/13 02:50:08;;;;;;;0.70;0.70;;;17.50;99.90;;;;;;4992702;28;20044;-85
2022/09/13 02:53:03;;;;;;;0.40;0.40;;;17.50;99.90;;;;;;5005574;28;20044;-84
2022/09/13 02:55:52;;;;;;;0.40;0.40;;;17.50;99.90;;;;;;5012809;28;20151;-84
2022/09/13 02:58:25;;;;;;;0.40;0.40;;;17.50;99.90;;;;;;5004688;28;20124;-86
2022/09/13 03:00:51;;;;;;;0.43;0.43;;;17.50;99.90;;;;;;5009884;28;20184;-84
2022/09/13 03:03:19;;;;;;;0.40;0.40;;;17.50;99.90;;;;;;5018453;28;20071;-84
2022/09/13 03:05:46;;;;;;;0.50;0.50;;;17.60;99.90;;;;;;4985118;28;20147;-84
2022/09/13 03:08:15;;;;;;;0.40;0.40;;;17.60;99.90;;;;;;5005856;28;20040;-84
2022/09/13 03:11:03;;;;;;;0.40;0.40;;;17.60;99.90;;;;;;5009915;28;20094;-83
2022/09/13 03:14:05;;;;;;;0.40;0.40;;;17.60;99.90;;;;;;4984612;28;20044;-83
2022/09/13 03:16:43;;;;;;;0.40;0.40;;;17.60;99.90;;;;;;4978405;28;20055;-84
2022/09/13 03:19:20;;;;;;;0.40;0.40;;;17.70;99.90;;;;;;4980626;28;20117;-84
2022/09/13 03:22:02;;;;;;;0.40;0.40;;;17.70;99.90;;;;;;5017386;28;20435;-84
2022/09/13 03:24:36;;;;;;;0.40;0.40;;;17.60;99.90;;;;;;4997630;28;20067;-83
2022/09/13 03:27:05;;;;;;;0.40;0.40;;;17.70;99.90;;;;;;5003373;28;20036;-83
2022/09/13 03:29:44;;;;;;;0.40;0.40;;;17.70;99.90;;;;;;5008364;28;20503;-83
2022/09/13 03:32:28;;;;;;;0.40;0.40;;;17.70;99.90;;;;;;5003170;28;20051;-84
2022/09/13 03:35:36;;;;;;;0.40;0.40;;;17.70;99.90;;;;;;5008479;28;20420;-83
2022/09/13 03:38:20;;;;;;;0.40;0.40;;;17.70;99.90;;;;;;5004617;28;20048;-83
2022/09/13 03:40:55;;;;;;;0.40;0.40;;;17.60;99.90;;;;;;5013318;28;20052;-83
2022/09/13 03:43:58;;;;;;;0.40;0.40;;;17.60;99.90;;;;;;5006220;28;20354;-84
2022/09/13 03:46:39;;;;;;;0.47;0.47;;;17.60;99.90;;;;;;4968923;28;20200;-84
2022/09/13 03:49:26;;;;;;;0.40;0.40;;;17.70;99.90;;;;;;5006656;28;20441;-84
2022/09/13 03:51:53;;;;;;;0.43;0.43;;;17.60;99.90;;;;;;4985417;28;20044;-83
2022/09/13 03:54:23;;;;;;;0.43;0.43;;;17.60;99.90;;;;;;5006866;28;20443;-83
2022/09/13 03:57:16;;;;;;;0.40;0.40;;;17.60;99.90;;;;;;4991174;28;20671;-83
2022/09/13 03:59:53;;;;;;;0.40;0.40;;;17.70;99.90;;;;;;5000989;28;20773;-84
2022/09/13 04:02:21;;;;;;;0.50;0.50;;;17.70;99.90;;;;;;5010637;28;20108;-83
2022/09/13 04:04:47;;;;;;;0.40;0.40;;;17.70;99.90;;;;;;4992350;28;20235;-83
2022/09/13 04:07:22;;;;;;;0.40;0.40;;;17.70;99.90;;;;;;5008641;28;20058;-83
2022/09/13 04:09:47;;;;;;;0.40;0.40;;;17.70;99.90;;;;;;4996495;28;20948;-83
2022/09/13 04:12:15;;;;;;;0.40;0.40;;;17.70;99.90;;;;;;5002222;28;20049;-83
2022/09/13 04:14:42;;;;;;;0.40;0.40;;;17.80;99.90;;;;;;4995623;28;20086;-83
2022/09/13 04:17:08;;;;;;;0.40;0.40;;;17.70;99.90;;;;;;4965514;28;20097;-84
2022/09/13 04:19:34;;;;;;;0.40;0.40;;;17.80;99.90;;;;;;5000059;28;20047;-84
2022/09/13 04:22:00;;;;;;;0.40;0.40;;;17.70;99.90;;;;;;5001090;28;20048;-83
2022/09/13 04:24:27;;;;;;;0.40;0.40;;;17.70;99.90;;;;;;5002970;28;20054;-83
2022/09/13 04:26:54;;;;;;;0.40;0.40;;;17.80;99.90;;;;;;4997420;28;20040;-82
2022/09/13 04:29:21;;;;;;;0.40;0.40;;;17.70;99.90;;;;;;5018035;28;20048;-83
2022/09/13 04:31:49;;;;;;;0.50;0.50;;;17.80;99.90;;;;;;4997752;28;20044;-82
2022/09/13 04:34:17;;;;;;;0.40;0.40;;;17.70;99.90;;;;;;5002247;28;20453;-83
2022/09/13 04:36:44;;;;;;;0.93;0.93;;;17.80;99.90;;;;;;4982105;28;20792;-83
2022/09/13 04:39:12;;;;;;;0.40;0.40;;;17.70;99.90;;;;;;5002332;28;20071;-84
2022/09/13 04:41:47;;;;;;;0.40;0.40;;;17.70;99.90;;;;;;4965058;28;20056;-83
2022/09/13 04:44:14;;;;;;;0.40;0.40;;;17.70;99.90;;;;;;4983434;28;20153;-83
2022/09/13 04:46:40;;;;;;;0.40;0.40;;;17.70;99.90;;;;;;4988395;28;20627;-82
2022/09/13 04:49:08;;;;;;;0.40;0.40;;;17.80;99.90;;;;;;4963915;28;20500;-83
2022/09/13 04:51:33;;;;;;;0.40;0.40;;;17.80;99.90;;;;;;4975770;28;20478;-83
2022/09/13 04:53:59;;;;;;;0.40;0.40;;;17.70;99.90;;;;;;5007396;28;20481;-83
2022/09/13 04:56:26;;;;;;;0.40;0.40;;;17.70;99.90;;;;;;4964648;28;20959;-82
2022/09/13 04:58:54;;;;;;;0.40;0.40;;;17.70;99.90;;;;;;4983929;28;20044;-83
2022/09/13 05:01:21;;;;;;;0.40;0.40;;;17.70;99.90;;;;;;4962036;28;20958;-83
2022/09/13 05:03:46;;;;;;;0.47;0.47;;;17.70;99.90;;;;;;4989864;28;20296;-83
2022/09/13 05:06:16;;;;;;;0.40;0.40;;;17.80;99.90;;;;;;4961462;28;20044;-83
2022/09/13 05:08:43;;;;;;;0.40;0.40;;;17.80;99.90;;;;;;4965689;28;20040;-83
2022/09/13 05:11:09;;;;;;;0.40;0.40;;;17.80;99.90;;;;;;4946343;28;20044;-83
2022/09/13 05:13:35;;;;;;;0.40;0.40;;;17.80;99.90;;;;;;4962391;28;20063;-83
2022/09/13 05:16:06;;;;;;;0.47;0.47;;;17.80;99.90;;;;;;4996457;28;20735;-83
2022/09/13 05:18:34;;;;;;;0.40;0.40;;;17.80;99.90;;;;;;4961109;28;20048;-83
2022/09/13 05:21:03;;;;;;;0.40;0.40;;;17.70;99.90;;;;;;4960019;28;20051;-83
2022/09/13 05:23:30;;;;;;;0.40;0.40;;;17.80;99.90;;;;;;4975862;28;20052;-83
2022/09/13 05:25:58;;;;;;;0.40;0.40;;;17.80;99.90;;;;;;4961402;28;20570;-83
2022/09/13 05:28:26;;;;;;;1.33;0.50;;;17.80;99.90;;;;;;4976007;28;20122;-83
2022/09/13 05:30:56;;;;;;;0.40;0.40;;;17.80;99.90;;;;;;4958888;28;20079;-83
2022/09/13 05:33:23;;;;;;;0.40;0.40;;;17.80;99.90;;;;;;4969313;28;20551;-83
2022/09/13 05:35:49;;;;;;;0.40;0.40;;;17.90;99.90;;;;;;4973060;28;20051;-82
2022/09/13 05:38:22;;;;;;;0.40;0.40;;;17.80;99.90;;;;;;4961589;28;20362;-82
2022/09/13 05:40:55;;;;;;;0.40;0.40;;;17.80;99.90;;;;;;4957255;28;20494;-83
2022/09/13 05:43:21;;;;;;;0.40;0.40;;;17.80;99.90;;;;;;4966054;28;20060;-83
2022/09/13 05:45:47;;;;;;;0.40;0.40;;;17.90;99.90;;;;;;4953410;28;20150;-83
2022/09/13 05:48:13;;;;;;;0.40;0.40;;;17.90;99.90;;;;;;4963640;28;20101;-82
2022/09/13 05:50:39;;;;;;;0.40;0.40;;;17.90;99.90;;;;;;4984126;28;20396;-82
2022/09/13 05:53:05;;;;;;;0.40;0.40;;;17.90;99.90;;;;;;4986269;28;20655;-83
2022/09/13 05:55:32;;;;;;;0.43;0.43;;;17.90;99.90;;;;;;4979968;28;20109;-85
2022/09/13 05:57:58;;;;;;;0.47;0.47;;;17.90;99.90;;;;;;4962349;28;20048;-83
2022/09/13 06:00:24;;;;;;;0.40;0.40;;;17.90;99.90;;;;;;4957572;28;20063;-83
2022/09/13 06:02:50;;;;;;;0.40;0.40;;;17.90;99.90;;;;;;4982493;28;20569;-85
2022/09/13 06:05:16;;;;;;;0.40;0.40;;;18.00;99.90;;;;;;4981318;28;20048;-83
2022/09/13 06:07:42;;;;;;;0.40;0.40;;;17.90;99.90;;;;;;4986590;28;20028;-82
2022/09/13 06:10:09;;;;;;;0.40;0.40;;;18.00;99.90;;;;;;4976087;28;20272;-82
2022/09/13 06:12:35;;;;;;;0.40;0.40;;;17.90;99.90;;;;;;4996139;28;20060;-82
2022/09/13 06:15:01;;;;;;;0.40;0.40;;;17.90;99.90;;;;;;5011838;28;20313;-82
2022/09/13 06:17:27;;;;;;;0.40;0.40;;;18.00;99.90;;;;;;4984948;28;20523;-81
2022/09/13 06:19:53;;;;;;;0.40;0.40;;;18.00;99.90;;;;;;4981119;28;20048;-84
2022/09/13 06:22:19;;;;;;;0.40;0.40;;;18.00;99.90;;;;;;4961881;28;20039;-83
2022/09/13 06:24:45;;;;;;;0.40;0.40;;;18.10;99.90;;;;;;4979248;28;20423;-82
2022/09/13 06:27:10;;;;;;;0.40;0.40;;;18.10;99.90;;;;;;4995979;28;20041;-83
2022/09/13 06:29:36;;;;;;;0.40;0.40;;;18.10;99.90;;;;;;4983091;28;20055;-83
2022/09/13 06:32:03;;;;;;;0.40;0.40;;;18.10;99.90;;;;;;4979119;28;20054;-83
2022/09/13 06:34:29;;;;;;;0.45;0.45;;;18.10;99.90;;;;;;4986014;28;20052;-82
2022/09/13 06:36:55;;;;;;;0.50;0.50;;;18.30;99.90;;;;;;4995349;28;20710;-83
2022/09/13 06:39:21;;;;;;;0.40;0.40;;;18.30;99.90;;;;;;4997339;28;20163;-84
2022/09/13 06:41:46;;;;;;;0.50;0.50;;;18.30;99.90;;;;;;4969194;28;20899;-84
2022/09/13 06:44:13;;;;;;;0.50;0.50;;;18.30;99.90;;;;;;5003842;28;20554;-83
2022/09/13 06:46:39;;;;;;;0.40;0.40;;;18.30;99.90;;;;;;4973539;28;20587;-83
2022/09/13 06:49:07;;;;;;;0.40;0.40;;;18.40;99.90;;;;;;4993957;28;20522;-83
2022/09/13 06:51:34;;;;;;;0.40;0.40;;;18.40;99.90;;;;;;4983562;28;20410;-82
2022/09/13 06:54:02;;;;;;;0.40;0.40;;;18.40;99.90;;;;;;5000206;28;20035;-83
2022/09/13 06:56:31;;;;;;;0.50;0.50;;;18.50;99.90;;;;;;5004645;28;20546;-83
2022/09/13 06:58:59;;;;;;;0.45;0.45;;;18.50;99.90;;;;;;5013458;28;20956;-82
2022/09/13 07:01:30;;;;;;;0.43;0.43;;;18.50;99.90;;;;;;4997990;28;20632;-83
2022/09/13 07:04:11;;;;;;;0.40;0.40;;;18.60;99.90;;;;;;4999985;28;20092;-84
2022/09/13 07:06:43;;;;;;;0.40;0.40;;;18.60;99.90;;;;;;5002428;28;20043;-82
2022/09/13 07:09:16;;;;;;;0.40;0.40;;;18.70;99.90;;;;;;5000824;28;20054;-83
2022/09/13 07:11:44;;;;;;;0.40;0.40;;;18.80;99.90;;;;;;4981430;28;20048;-82
2022/09/13 07:14:18;;;;;;;0.40;0.40;;;18.70;99.90;;;;;;5000981;28;20435;-83
2022/09/13 07:16:45;;;;;;;0.50;0.50;;;18.70;99.90;;;;;;5000015;28;20054;-83
2022/09/13 07:19:16;;;;;;;0.40;0.40;;;18.70;99.90;;;;;;4999798;28;20330;-82
2022/09/13 07:21:42;;;;;;;0.40;0.40;;;18.80;99.90;;;;;;4999932;28;20051;-80
2022/09/13 07:24:09;;;;;;;0.40;0.40;;;18.90;99.90;;;;;;4983452;28;20523;-81
2022/09/13 07:26:34;;;;;;;0.40;0.40;;;18.90;99.90;;;;;;5000357;28;20787;-81
2022/09/13 07:29:04;;;;;;;0.40;0.40;;;18.90;99.90;;;;;;5000256;28;20634;-81
2022/09/13 07:31:33;;;;;;;0.40;0.40;;;18.90;99.90;;;;;;5024091;28;20039;-80
2022/09/13 07:34:01;;;;;;;0.40;0.40;;;19.00;99.90;;;;;;5003105;28;20484;-81
2022/09/13 07:36:29;;;;;;;0.40;0.40;;;18.80;99.90;;;;;;5003969;28;20046;-81
2022/09/13 07:38:55;;;;;;;0.40;0.40;;;18.80;99.90;;;;;;4999087;28;20113;-80
2022/09/13 07:41:23;;;;;;;0.40;0.40;;;18.90;99.90;;;;;;5012219;28;20055;-81
2022/09/13 07:43:50;;;;;;;0.40;0.40;;;18.80;99.90;;;;;;5016527;28;20516;-81
2022/09/13 07:46:18;;;;;;;0.35;0.35;;;18.80;99.90;;;;;;4997772;28;20047;-81
2022/09/13 07:48:46;;;;;;;0.40;0.40;;;18.70;99.90;;;;;;5002107;28;20047;-81
2022/09/13 07:51:14;;;;;;;0.40;0.40;;;18.70;99.90;;;;;;4999231;28;20077;-81
2022/09/13 07:53:41;;;;;;;0.40;0.40;;;18.70;99.90;;;;;;4997249;28;20568;-82
2022/09/13 07:56:10;;;;;;;0.40;0.40;;;18.70;99.90;;;;;;4995195;28;20515;-82
2022/09/13 07:58:37;;;;;;;0.40;0.40;;;18.60;99.90;;;;;;5000722;28;20459;-83
2022/09/13 08:01:20;;;;;;;0.40;0.40;;;18.70;99.90;;;;;;5011814;28;20404;-82
2022/09/13 08:04:07;;;;;;;0.40;0.40;;;18.70;99.90;;;;;;4993538;28;20415;-81
2022/09/13 08:06:35;;;;;;;0.40;0.40;;;18.60;99.90;;;;;;5027065;28;20540;-82
2022/09/13 08:09:01;;;;;;;0.40;0.40;;;18.90;99.90;;;;;;5023715;28;20694;-83
2022/09/13 08:11:33;;;;;;;0.40;0.40;;;18.90;99.90;;;;;;5017709;28;20109;-82
2022/09/13 08:13:59;;;;;;;0.50;0.50;;;19.10;99.90;;;;;;5002050;28;20799;-82
2022/09/13 08:16:26;;;;;;;0.40;0.40;;;19.20;99.90;;;;;;4999595;28;20044;-83
2022/09/13 08:18:57;;;;;;;0.40;0.40;;;19.30;99.90;;;;;;4997833;28;20093;-82
2022/09/13 08:21:25;;;;;;;0.40;0.40;;;19.30;99.90;;;;;;5013654;28;20071;-81
2022/09/13 08:23:59;;;;;;;0.50;0.50;;;19.50;99.90;;;;;;4999818;28;20268;-82
2022/09/13 08:26:26;;;;;;;0.43;0.43;;;19.60;99.90;;;;;;4954611;28;20130;-81
2022/09/13 08:29:01;;;;;;;0.40;0.40;;;19.60;99.90;;;;;;4998368;28;20686;-82
2022/09/13 08:31:27;;;;;;;0.40;0.40;;;19.80;99.90;;;;;;5016229;28;20036;-81
2022/09/13 08:33:54;;;;;;;0.40;0.40;;;19.90;99.90;;;;;;4998086;28;20516;-82
2022/09/13 08:36:22;;;;;;;0.35;0.35;;;20.20;99.90;;;;;;5005071;28;20051;-81
2022/09/13 08:38:57;;;;;;;0.40;0.40;;;20.00;99.90;;;;;;4994674;28;20381;-81
2022/09/13 08:41:44;;;;;;;0.30;0.30;;;20.00;99.90;;;;;;4996966;28;20051;-82
2022/09/13 08:44:15;;;;;;;0.40;0.40;;;20.10;99.90;;;;;;5001930;28;20493;-81
2022/09/13 08:46:46;;;;;;;0.40;0.40;;;20.30;99.90;;;;;;4998335;28;20789;-82
2022/09/13 08:49:22;;;;;;;0.40;0.40;;;20.30;99.90;;;;;;5014820;28;20846;-81
2022/09/13 08:51:52;;;;;;;0.40;0.40;;;20.40;99.90;;;;;;5000745;28;20047;-83
2022/09/13 08:54:19;;;;;;;0.40;0.40;;;20.50;99.90;;;;;;4996324;28;20430;-83
2022/09/13 08:56:58;;;;;;;0.40;0.40;;;20.40;99.90;;;;;;4989717;28;20124;-80
2022/09/13 08:59:46;;;;;;;0.38;0.38;;;20.50;99.90;;;;;;4994635;28;20457;-79
2022/09/13 09:02:56;;;;;;;0.30;0.30;;;20.50;99.90;;;;;;5001000;28;20082;-80
2022/09/13 09:05:24;;;;;;;0.40;0.40;;;20.60;99.90;;;;;;5004059;28;20157;-80
2022/09/13 09:07:59;;;;;;;0.40;0.40;;;20.70;99.90;;;;;;5015815;28;20922;-81
2022/09/13 09:10:46;;;;;;;0.30;0.30;;;20.70;99.90;;;;;;4998379;28;20479;-81
2022/09/13 09:13:53;;;;;;;0.40;0.40;;;21.00;99.90;;;;;;4992521;28;20062;-82
2022/09/13 09:16:40;;;;;;;0.40;0.40;;;20.90;99.90;;;;;;4964431;28;20059;-81
2022/09/13 09:19:16;;;;;;;0.38;0.38;;;20.90;99.90;;;;;;4996970;28;20491;-81
2022/09/13 09:21:46;;;;;;;0.40;0.40;;;20.90;99.90;;;;;;5013261;28;20048;-80
2022/09/13 09:24:24;;;;;;;0.40;0.40;;;21.20;99.90;;;;;;5003342;28;20215;-81
2022/09/13 09:26:57;;;;;;;0.40;0.40;;;21.40;99.90;;;;;;4999062;28;20910;-81
2022/09/13 09:29:27;;;;;;;0.40;0.40;;;21.50;99.90;;;;;;5000808;28;20047;-79
2022/09/13 09:32:08;;;;;;;0.30;0.30;;;21.40;99.90;;;;;;5013579;28;20594;-79
2022/09/13 09:34:50;;;;;;;0.40;0.40;;;21.40;99.90;;;;;;4996485;28;20052;-81
2022/09/13 09:37:28;;;;;;;0.30;0.30;;;21.60;99.90;;;;;;4996166;28;20106;-79
2022/09/13 09:40:01;;;;;;;0.30;0.30;;;22.00;99.90;;;;;;4987480;28;20523;-81
2022/09/13 09:42:31;;;;;;;0.35;0.35;;;22.30;99.90;;;;;;4996959;28;20051;-80
2022/09/13 09:45:05;;;;;;;0.30;0.30;;;22.10;99.90;;;;;;5003612;28;20586;-82
2022/09/13 09:47:46;;;;;;;0.40;0.40;;;21.70;99.90;;;;;;5012937;28;20970;-79
2022/09/13 09:50:22;;;;;;;0.30;0.30;;;21.50;99.90;;;;;;4996478;28;20047;-79
2022/09/13 09:53:30;;;;;;;0.30;0.30;;;21.40;99.90;;;;;;5012432;28;20051;-78
2022/09/13 09:56:05;;;;;;;0.30;0.30;;;21.80;99.90;;;;;;4917780;28;20633;-81
2022/09/13 09:58:40;;;;;;;0.40;0.40;;;22.00;99.90;;;;;;5008595;28;20275;-81
2022/09/13 10:01:15;;;;;;;0.30;0.30;;;22.00;99.90;;;;;;5013548;28;20631;-81
2022/09/13 10:03:41;;;;;;;0.40;0.40;;;21.80;99.90;;;;;;4994821;28;20086;-81
2022/09/13 10:06:08;;;;;;;0.30;0.30;;;21.70;99.90;;;;;;5000543;28;20472;-79
2022/09/13 10:08:36;;;;;;;0.30;0.30;;;22.10;99.90;;;;;;5011835;28;20123;-79
2022/09/13 10:11:03;;;;;;;0.30;0.30;;;22.30;99.90;;;;;;4975504;28;20094;-81
2022/09/13 10:13:31;;;;;;;0.40;0.40;;;22.60;99.90;;;;;;4994403;28;20043;-81
2022/09/13 10:16:02;;;;;;;0.30;0.30;;;23.00;99.90;;;;;;5016513;28;20046;-79
2022/09/13 10:18:30;;;;;;;0.30;0.30;;;22.50;99.90;;;;;;4994010;28;20048;-79
2022/09/13 10:21:01;;;;;;;0.30;0.30;;;22.80;99.90;;;;;;4974828;28;20162;-79
2022/09/13 10:23:27;;;;;;;0.30;0.30;;;22.50;99.90;;;;;;4996008;28;20052;-79
2022/09/13 10:26:02;;;;;;;0.30;0.30;;;22.40;99.90;;;;;;4993174;28;20051;-80
2022/09/13 10:28:31;;;;;;;0.40;0.30;;;22.30;99.90;;;;;;4993751;28;20032;-78
2022/09/13 10:31:01;;;;;;;0.30;0.30;;;22.60;99.90;;;;;;5003827;28;20427;-78
2022/09/13 10:33:38;;;;;;;0.30;0.30;;;22.70;99.90;;;;;;5011545;28;20067;-79
2022/09/13 10:36:12;;;;;;;0.30;0.30;;;22.70;99.90;;;;;;4989862;28;20130;-81
2022/09/13 10:38:40;;;;;;;0.30;0.30;;;22.50;99.90;;;;;;5014274;28;20040;-82
2022/09/13 10:41:10;;;;;;;0.40;0.40;;;22.60;99.90;;;;;;5013368;28;20096;-81
2022/09/13 10:43:36;;;;;;;0.30;0.30;;;22.40;99.90;;;;;;4995305;28;20557;-79
2022/09/13 10:46:10;;;;;;;0.30;0.30;;;22.90;99.90;;;;;;5015217;28;20043;-78
2022/09/13 10:48:46;;;;;;;0.40;0.40;;;22.80;99.90;;;;;;4989582;28;20128;-80
2022/09/13 10:51:21;;;;;;;0.32;0.32;;;22.40;99.90;;;;;;4994284;28;20496;-80
2022/09/13 10:53:47;;;;;;;0.30;0.30;;;22.40;99.90;;;;;;5004690;28;20046;-77
2022/09/13 10:56:25;;;;;;;0.30;0.30;;;22.80;99.90;;;;;;4998099;28;20292;-77
2022/09/13 10:59:16;;;;;;;0.30;0.30;;;22.90;99.90;;;;;;4980984;28;20135;-79
2022/09/13 11:02:13;;;;;;;0.30;0.30;;;23.00;99.90;;;;;;4969967;28;20406;-78
2022/09/13 11:05:11;;;;;;;0.30;0.30;;;23.10;99.90;;;;;;5001660;28;20397;-79
2022/09/13 11:07:57;;;;;;;0.30;0.30;;;23.30;99.90;;;;;;5018720;28;20121;-77
2022/09/13 11:10:28;;;;;;;0.30;0.30;;;23.20;99.90;;;;;;4986053;28;20046;-78
2022/09/13 11:13:22;;;;;;;0.30;0.30;;;23.10;99.90;;;;;;5010972;28;20172;-79
2022/09/13 11:16:09;;;;;;;0.30;0.30;;;23.50;99.90;;;;;;5018119;28;20040;-80
2022/09/13 11:18:50;;;;;;;0.30;0.30;;;24.00;99.90;;;;;;5012417;28;20396;-79
2022/09/13 11:21:40;;;;;;;0.30;0.30;;;24.20;99.90;;;;;;5001375;28;20168;-80
2022/09/13 11:24:33;;;;;;;0.30;0.30;;;24.50;99.90;;;;;;5002796;28;20547;-78
2022/09/13 11:27:16;;;;;;;0.30;0.30;;;24.60;99.90;;;;;;5016879;28;20115;-79
2022/09/13 11:29:59;;;;;;;0.30;0.30;;;24.40;99.90;;;;;;5017940;28;20842;-79
2022/09/13 11:32:44;;;;;;;0.30;0.30;;;24.40;99.90;;;;;;5021866;28;20043;-79
2022/09/13 11:35:19;;;;;;;0.30;0.30;;;24.60;99.90;;;;;;5001047;28;20078;-78
2022/09/13 11:37:45;;;;;;;0.40;0.40;;;24.80;99.90;;;;;;5006630;28;20063;-79
2022/09/13 11:40:27;;;;;;;0.30;0.30;;;24.20;99.90;;;;;;5017781;28;20040;-80
2022/09/13 11:43:12;;;;;;;0.30;0.30;;;24.60;99.90;;;;;;5020287;28;20060;-80
2022/09/13 11:46:14;;;;;;;0.30;0.30;;;24.80;99.90;;;;;;5018544;28;20639;-78
2022/09/13 11:48:55;;;;;;;0.30;0.30;;;24.20;99.90;;;;;;4997513;28;20875;-80
2022/09/13 11:51:56;;;;;;;0.30;0.30;;;24.50;99.90;;;;;;5000869;28;20061;-79
2022/09/13 11:54:31;;;;;;;0.30;0.30;;;24.40;99.90;;;;;;4993203;28;20496;-78
2022/09/13 11:57:07;;;;;;;0.30;0.30;;;24.50;99.90;;;;;;5019612;28;20055;-79
2022/09/13 11:59:45;;;;;;;0.35;0.35;;;24.30;99.90;;;;;;5004747;28;20500;-78
2022/09/13 12:02:20;;;;;;;0.30;0.30;;;24.50;99.90;;;;;;5016631;28;20116;-79
2022/09/13 12:04:57;;;;;;;0.30;0.30;;;24.20;99.90;;;;;;4999949;28;20063;-79
2022/09/13 12:07:57;;;;;;;0.30;0.30;;;24.00;99.90;;;;;;5001337;28;21002;-80
2022/09/13 12:10:26;;;;;;;0.30;0.30;;;23.90;99.90;;;;;;4997482;28;20056;-80
2022/09/13 12:12:54;;;;;;;0.30;0.30;;;23.90;99.90;;;;;;4984687;28;20135;-79
2022/09/13 12:15:36;;;;;;;0.30;0.30;;;24.20;99.90;;;;;;5000967;28;20087;-79
2022/09/13 12:18:21;;;;;;;0.30;0.30;;;24.40;99.90;;;;;;4998745;28;20451;-79
2022/09/13 12:20:50;;;;;;;0.30;0.30;;;24.50;99.90;;;;;;5016155;28;20079;-77
2022/09/13 12:23:24;;;;;;;0.30;0.30;;;24.60;99.90;;;;;;5001451;28;20130;-81
2022/09/13 12:26:12;;;;;;;0.30;0.30;;;24.80;99.90;;;;;;5018150;28;20235;-78
2022/09/13 12:29:00;;;;;;;0.32;0.32;;;25.00;99.90;;;;;;4996077;28;20048;-78
2022/09/13 12:31:28;;;;;;;0.30;0.30;;;24.50;99.90;;;;;;5020403;28;20960;-79
2022/09/13 12:33:55;;;;;;;0.30;0.30;;;24.50;99.90;;;;;;5000929;28;20413;-78
2022/09/13 12:36:39;;;;;;;0.30;0.30;;;24.80;99.90;;;;;;4995058;28;20046;-79
2022/09/13 12:39:14;;;;;;;;;;;25.00;99.90;;;;;;5004248;28;20237;-79
2022/09/13 12:42:01;;;;;;;0.30;0.30;;;25.00;99.90;;;;;;4996293;28;20629;-80
2022/09/13 12:44:58;;;;;;;0.30;0.30;;;25.10;99.90;;;;;;5016699;28;20330;-78
2022/09/13 12:47:54;;;;;;;0.30;0.30;;;25.20;99.90;;;;;;5023431;28;20356;-78
2022/09/13 12:50:35;;;;;;;0.30;0.30;;;25.40;99.90;;;;;;4999661;28;20442;-80
2022/09/13 12:53:16;;;;;;;0.30;0.30;;;25.40;99.90;;;;;;5012509;28;20073;-78
2022/09/13 12:56:19;;;;;;;0.30;0.30;;;25.20;99.90;;;;;;5017591;28;20615;-79
2022/09/13 12:58:44;;;;;;;0.30;0.30;;;25.00;99.90;;;;;;5012405;28;20245;-79
2022/09/13 13:01:18;;;;;;;0.30;0.30;;;25.00;99.90;;;;;;5012766;28;20184;-77
2022/09/13 13:03:52;;;;;;;;;;;24.70;99.90;;;;;;4998217;28;20426;-79
2022/09/13 13:06:35;;;;;;;0.40;0.40;;;25.00;99.90;;;;;;5018984;28;20443;-77
2022/09/13 13:09:19;;;;;;;0.30;0.30;;;24.00;99.90;;;;;;4997764;28;20056;-78
2022/09/13 13:11:47;;;;;;;0.30;0.30;;;24.50;99.90;;;;;;5010128;28;20047;-78
2022/09/13 13:14:37;;;;;;;0.30;0.30;;;24.50;99.90;;;;;;5001888;28;20569;-78
2022/09/13 13:17:34;;;;;;;0.30;0.30;;;24.70;99.90;;;;;;4998195;28;21236;-77
2022/09/13 13:20:39;;;;;;;0.30;0.30;;;24.50;99.90;;;;;;4995783;28;20883;-79
2022/09/13 13:23:22;;;;;;;0.30;0.30;;;24.80;99.90;;;;;;4993584;28;20294;-79
2022/09/13 13:26:04;;;;;;;0.30;0.30;;;24.60;99.90;;;;;;4997910;28;20464;-78